sensor_id;sensor_type;location;lat;lon;timestamp;P1;durP1;ratioP1;P2;durP2;ratioP2
65535;SDS011;52145;49.342;9.116;2023-12-07T11:16:43;30.70;;;15.60;;
65535;SDS011;52145;49.342;9.116;2023-12-07T11:21:46;22.73;;;13.07;;
65535;SDS011;52145;49.342;9.116;2023-12-07T11:24:15;25.55;;;14.60;;
65535;SDS011;52145;49.342;9.116;2023-12-07T11:26:42;26.50;;;13.63;;
65535;SDS011;52145;49.342;9.116;2023-12-07T11:29:09;21.58;;;12.25;;
65535;SDS011;52145;49.342;9.116;2023-12-07T11:31:36;20.58;;;11.07;;
65535;SDS011;52145;49.342;9.116;2023-12-07T11:34:06;16.63;;;10.85;;
65535;SDS011;52145;49.342;9.116;2023-12-07T11:36:38;17.88;;;10.75;;
65535;SDS011;52145;49.342;9.116;2023-12-07T11:41:43;18.05;;;11.30;;
65535;SDS011;52145;49.342;9.116;2023-12-07T11:44:09;20.10;;;11.18;;
65535;SDS011;52145;49.342;9.116;2023-12-07T11:46:39;22.15;;;10.90;;
65535;SDS011;52145;49.342;9.116;2023-12-07T11:49:05;20.15;;;11.05;;
65535;SDS011;52145;49.342;9.116;2023-12-07T11:51:35;21.15;;;12.20;;
65535;SDS011;52145;49.342;9.116;2023-12-07T11:54:01;22.00;;;11.27;;
65535;SDS011;52145;49.342;9.116;2023-12-07T11:56:27;18.23;;;11.05;;
65535;SDS011;52145;49.342;9.116;2023-12-07T11:58:53;18.02;;;11.07;;
65535;SDS011;52145;49.342;9.116;2023-12-07T12:01:21;19.55;;;10.45;;
65535;SDS011;52145;49.342;9.116;2023-12-07T12:03:47;18.00;;;11.07;;
65535;SDS011;52145;49.342;9.116;2023-12-07T12:06:13;19.95;;;11.75;;
65535;SDS011;52145;49.342;9.116;2023-12-07T12:08:42;20.75;;;11.73;;
65535;SDS011;52145;49.342;9.116;2023-12-07T12:11:08;20.88;;;11.85;;
65535;SDS011;52145;49.342;9.116;2023-12-07T12:13:35;17.13;;;11.02;;
65535;SDS011;52145;49.342;9.116;2023-12-07T12:16:01;19.60;;;11.82;;
65535;SDS011;52145;49.342;9.116;2023-12-07T12:18:27;21.88;;;13.10;;
65535;SDS011;52145;49.342;9.116;2023-12-07T12:20:53;20.60;;;12.27;;
65535;SDS011;52145;49.342;9.116;2023-12-07T12:23:19;20.42;;;11.07;;
65535;SDS011;52145;49.342;9.116;2023-12-07T12:25:45;18.38;;;9.95;;
65535;SDS011;52145;49.342;9.116;2023-12-07T12:28:11;20.30;;;11.15;;
65535;SDS011;52145;49.342;9.116;2023-12-07T12:30:40;15.60;;;10.23;;
65535;SDS011;52145;49.342;9.116;2023-12-07T12:33:07;16.83;;;10.20;;
65535;SDS011;52145;49.342;9.116;2023-12-07T12:35:33;20.65;;;11.10;;
65535;SDS011;52145;49.342;9.116;2023-12-07T12:37:59;18.00;;;10.55;;
65535;SDS011;52145;49.342;9.116;2023-12-07T12:40:27;14.55;;;10.48;;
65535;SDS011;52145;49.342;9.116;2023-12-07T12:42:54;16.00;;;10.68;;
65535;SDS011;52145;49.342;9.116;2023-12-07T12:45:20;16.42;;;10.02;;
65535;SDS011;52145;49.342;9.116;2023-12-07T12:47:47;18.02;;;9.73;;
65535;SDS011;52145;49.342;9.116;2023-12-07T12:50:33;15.98;;;10.82;;
65535;SDS011;52145;49.342;9.116;2023-12-07T12:52:59;15.57;;;9.02;;
65535;SDS011;52145;49.342;9.116;2023-12-07T12:55:26;15.25;;;9.60;;
65535;SDS011;52145;49.342;9.116;2023-12-07T12:57:54;13.40;;;9.25;;
65535;SDS011;52145;49.342;9.116;2023-12-07T13:00:21;19.55;;;10.82;;
65535;SDS011;52145;49.342;9.116;2023-12-07T13:02:47;16.30;;;9.45;;
65535;SDS011;52145;49.342;9.116;2023-12-07T13:05:14;16.92;;;10.55;;
65535;SDS011;52145;49.342;9.116;2023-12-07T13:07:40;19.20;;;10.20;;
65535;SDS011;52145;49.342;9.116;2023-12-07T13:10:06;16.88;;;10.55;;
65535;SDS011;52145;49.342;9.116;2023-12-07T13:12:33;16.27;;;10.23;;
65535;SDS011;52145;49.342;9.116;2023-12-07T13:15:00;16.85;;;10.40;;
65535;SDS011;52145;49.342;9.116;2023-12-07T13:17:26;16.70;;;10.93;;
65535;SDS011;52145;49.342;9.116;2023-12-07T13:19:52;17.15;;;10.68;;
65535;SDS011;52145;49.342;9.116;2023-12-07T13:22:19;18.75;;;9.48;;
65535;SDS011;52145;49.342;9.116;2023-12-07T13:24:47;15.25;;;9.90;;
65535;SDS011;52145;49.342;9.116;2023-12-07T13:27:14;18.10;;;9.55;;
65535;SDS011;52145;49.342;9.116;2023-12-07T13:29:40;13.27;;;8.93;;
65535;SDS011;52145;49.342;9.116;2023-12-07T13:32:06;16.70;;;9.88;;
65535;SDS011;52145;49.342;9.116;2023-12-07T13:34:33;15.30;;;9.02;;
65535;SDS011;52145;49.342;9.116;2023-12-07T13:36:59;17.92;;;10.73;;
65535;SDS011;52145;49.342;9.116;2023-12-07T13:39:25;17.70;;;10.75;;
65535;SDS011;52145;49.342;9.116;2023-12-07T13:41:55;21.38;;;11.25;;
65535;SDS011;52145;49.342;9.116;2023-12-07T13:44:21;18.65;;;11.50;;
65535;SDS011;52145;49.342;9.116;2023-12-07T13:46:49;18.08;;;11.80;;
65535;SDS011;52145;49.342;9.116;2023-12-07T13:49:15;18.40;;;12.27;;
65535;SDS011;52145;49.342;9.116;2023-12-07T13:51:41;24.92;;;12.25;;
65535;SDS011;52145;49.342;9.116;2023-12-07T13:54:07;21.13;;;12.57;;
65535;SDS011;52145;49.342;9.116;2023-12-07T13:56:34;19.10;;;11.40;;
65535;SDS011;52145;49.342;9.116;2023-12-07T13:59:00;19.85;;;10.88;;
65535;SDS011;52145;49.342;9.116;2023-12-07T14:01:27;15.80;;;9.55;;
65535;SDS011;52145;49.342;9.116;2023-12-07T14:03:53;17.63;;;10.02;;
65535;SDS011;52145;49.342;9.116;2023-12-07T14:06:23;17.35;;;10.07;;
65535;SDS011;52145;49.342;9.116;2023-12-07T14:08:50;15.70;;;9.43;;
65535;SDS011;52145;49.342;9.116;2023-12-07T14:11:16;18.00;;;10.10;;
65535;SDS011;52145;49.342;9.116;2023-12-07T14:13:43;14.52;;;8.70;;
65535;SDS011;52145;49.342;9.116;2023-12-07T14:16:11;17.35;;;10.55;;
65535;SDS011;52145;49.342;9.116;2023-12-07T14:18:37;15.57;;;10.02;;
65535;SDS011;52145;49.342;9.116;2023-12-07T14:21:03;17.63;;;10.45;;
65535;SDS011;52145;49.342;9.116;2023-12-07T14:23:29;17.23;;;10.73;;
65535;SDS011;52145;49.342;9.116;2023-12-07T14:25:55;14.88;;;9.73;;
65535;SDS011;52145;49.342;9.116;2023-12-07T14:28:24;18.42;;;10.88;;
65535;SDS011;52145;49.342;9.116;2023-12-07T14:30:53;19.77;;;10.50;;
65535;SDS011;52145;49.342;9.116;2023-12-07T14:33:21;15.82;;;11.00;;
65535;SDS011;52145;49.342;9.116;2023-12-07T14:35:47;19.50;;;11.02;;
65535;SDS011;52145;49.342;9.116;2023-12-07T14:38:14;17.17;;;10.20;;
65535;SDS011;52145;49.342;9.116;2023-12-07T14:40:40;22.02;;;11.00;;
65535;SDS011;52145;49.342;9.116;2023-12-07T14:43:05;18.20;;;10.60;;
65535;SDS011;52145;49.342;9.116;2023-12-07T14:45:31;16.98;;;11.35;;
65535;SDS011;52145;49.342;9.116;2023-12-07T14:47:57;18.50;;;10.95;;
65535;SDS011;52145;49.342;9.116;2023-12-07T14:50:23;20.98;;;11.48;;
65535;SDS011;52145;49.342;9.116;2023-12-07T14:52:49;19.40;;;10.90;;
65535;SDS011;52145;49.342;9.116;2023-12-07T14:55:15;20.00;;;11.75;;
65535;SDS011;52145;49.342;9.116;2023-12-07T14:57:43;19.48;;;11.60;;
65535;SDS011;52145;49.342;9.116;2023-12-07T15:00:10;18.63;;;11.38;;
65535;SDS011;52145;49.342;9.116;2023-12-07T15:02:36;22.13;;;11.65;;
65535;SDS011;52145;49.342;9.116;2023-12-07T15:05:02;19.58;;;11.68;;
65535;SDS011;52145;49.342;9.116;2023-12-07T15:07:29;22.25;;;11.93;;
65535;SDS011;52145;49.342;9.116;2023-12-07T15:09:55;24.05;;;12.60;;
65535;SDS011;52145;49.342;9.116;2023-12-07T15:12:22;24.15;;;12.75;;
65535;SDS011;52145;49.342;9.116;2023-12-07T15:14:50;25.08;;;14.15;;
